Time;durP1;ratioP1;P1;durP2;ratioP2;P2;SDS_P1;SDS_P2;PMS_P1;PMS_P2;Temp;Humidity;BMP_temperature;BMP_pressure;BME280_temperature;BME280_humidity;BME280_pressure;Samples;Min_cycle;Max_cycle;Signal;HPM_P1;HPM_P2
2022/07/27 00:00:26;;;;;;;6.60;0.65;;;13.10;99.90;;;;;;5038226;28;20797;-68
2022/07/27 00:02:52;;;;;;;5.97;0.60;;;13.10;99.90;;;;;;5057056;28;20593;-71
2022/07/27 00:05:20;;;;;;;6.22;0.60;;;13.20;99.90;;;;;;5055367;28;20048;-69
2022/07/27 00:07:46;;;;;;;6.65;0.60;;;13.20;99.90;;;;;;5052584;28;20050;-69
2022/07/27 00:10:12;;;;;;;7.40;0.73;;;13.20;99.90;;;;;;5055223;28;20420;-69
2022/07/27 00:12:38;;;;;;;6.10;0.80;;;13.10;99.90;;;;;;5052461;28;20048;-71
2022/07/27 00:15:05;;;;;;;5.32;0.80;;;13.10;99.90;;;;;;5036004;28;20051;-68
2022/07/27 00:17:30;;;;;;;7.45;0.60;;;13.00;99.90;;;;;;5055334;28;20036;-69
2022/07/27 00:19:56;;;;;;;7.53;0.60;;;12.90;99.90;;;;;;5037381;28;20098;-69
2022/07/27 00:22:22;;;;;;;9.45;0.60;;;12.80;99.90;;;;;;5057366;28;20041;-69
2022/07/27 00:24:48;;;;;;;6.22;0.73;;;12.80;99.90;;;;;;5038483;28;20061;-69
2022/07/27 00:27:14;;;;;;;10.10;0.90;;;12.70;99.90;;;;;;5038585;28;20127;-70
2022/07/27 00:29:40;;;;;;;8.18;0.52;;;12.60;99.90;;;;;;5029626;28;20044;-71
2022/07/27 00:32:06;;;;;;;9.25;0.50;;;12.60;99.90;;;;;;5053406;28;20036;-70
2022/07/27 00:34:32;;;;;;;7.00;0.68;;;12.50;99.90;;;;;;5055702;28;20054;-72
2022/07/27 00:36:58;;;;;;;8.15;0.75;;;12.50;99.90;;;;;;5054930;28;20040;-70
2022/07/27 00:39:23;;;;;;;8.05;0.55;;;12.40;99.90;;;;;;5038301;28;20079;-69
2022/07/27 00:41:49;;;;;;;5.45;0.60;;;12.40;99.90;;;;;;5053472;28;20834;-70
2022/07/27 00:44:27;;;;;;;5.18;0.70;;;12.40;99.90;;;;;;5035381;28;20043;-73
2022/07/27 00:46:54;;;;;;;8.55;0.73;;;12.30;99.90;;;;;;5059055;28;20048;-70
2022/07/27 00:49:20;;;;;;;8.30;0.60;;;12.30;99.90;;;;;;5054707;28;20695;-69
2022/07/27 00:51:46;;;;;;;6.65;0.68;;;12.20;99.90;;;;;;5051838;28;20048;-71
2022/07/27 00:54:12;;;;;;;11.35;0.90;;;12.20;99.90;;;;;;5036904;28;20040;-69
2022/07/27 00:56:39;;;;;;;9.23;1.05;;;12.20;99.90;;;;;;5037812;28;20565;-72
2022/07/27 00:59:06;;;;;;;7.72;0.60;;;12.10;99.90;;;;;;5023603;28;20662;-71
2022/07/27 01:01:32;;;;;;;6.15;0.60;;;12.10;99.90;;;;;;5037686;28;20482;-71
2022/07/27 01:03:58;;;;;;;5.82;0.60;;;12.10;99.90;;;;;;5043587;28;20431;-69
2022/07/27 01:06:24;;;;;;;9.43;0.60;;;12.10;99.90;;;;;;5040165;28;20084;-70
2022/07/27 01:08:50;;;;;;;4.80;0.60;;;12.00;99.90;;;;;;5052853;28;20510;-69
2022/07/27 01:11:16;;;;;;;9.70;0.60;;;12.10;99.90;;;;;;5055489;28;20052;-69
2022/07/27 01:13:42;;;;;;;11.70;1.10;;;12.10;99.90;;;;;;5055126;28;20099;-69
2022/07/27 01:16:08;;;;;;;8.38;0.88;;;12.00;99.90;;;;;;5057224;28;20047;-72
2022/07/27 01:18:36;;;;;;;8.32;1.30;;;12.00;99.90;;;;;;5058645;28;20031;-70
2022/07/27 01:21:05;;;;;;;8.35;0.70;;;12.00;99.90;;;;;;5056593;28;20043;-70
2022/07/27 01:23:32;;;;;;;6.35;0.63;;;11.90;99.90;;;;;;5037104;28;20451;-68
2022/07/27 01:25:59;;;;;;;6.50;0.50;;;11.90;99.90;;;;;;5021423;28;20063;-69
2022/07/27 01:28:25;;;;;;;10.15;0.90;;;12.00;99.90;;;;;;5059740;28;20054;-70
2022/07/27 01:30:51;;;;;;;9.63;0.70;;;12.00;99.90;;;;;;5063731;28;20517;-69
2022/07/27 01:33:17;;;;;;;8.00;0.65;;;12.00;99.90;;;;;;5057496;28;20052;-70
2022/07/27 01:35:43;;;;;;;6.47;0.55;;;12.00;99.90;;;;;;5059712;28;20102;-70
2022/07/27 01:38:10;;;;;;;8.27;0.55;;;12.00;99.90;;;;;;5044621;28;20114;-69
2022/07/27 01:40:36;;;;;;;8.50;0.70;;;12.00;99.90;;;;;;5043144;28;20032;-70
2022/07/27 01:43:04;;;;;;;7.00;1.02;;;12.10;99.90;;;;;;5057733;28;20044;-69
2022/07/27 01:45:30;;;;;;;10.82;0.82;;;12.10;99.90;;;;;;5041946;28;20594;-72
2022/07/27 01:47:55;;;;;;;6.80;0.70;;;12.20;99.90;;;;;;5058657;28;20135;-71
2022/07/27 01:50:21;;;;;;;6.63;0.52;;;12.30;99.90;;;;;;5041928;28;20051;-70
2022/07/27 01:52:47;;;;;;;7.03;0.75;;;12.30;99.90;;;;;;5044683;28;20043;-68
2022/07/27 01:55:13;;;;;;;9.52;0.50;;;12.40;99.90;;;;;;5037967;28;21410;-70
2022/07/27 01:57:39;;;;;;;9.88;0.63;;;12.60;99.90;;;;;;5042078;28;20567;-69
2022/07/27 02:00:09;;;;;;;8.50;0.63;;;12.60;99.90;;;;;;5044742;28;20128;-70
2022/07/27 02:02:35;;;;;;;5.95;0.70;;;12.70;99.90;;;;;;5041919;28;20079;-72
2022/07/27 02:05:00;;;;;;;6.45;0.40;;;12.80;99.90;;;;;;5058432;28;20131;-70
2022/07/27 02:07:26;;;;;;;8.60;0.65;;;12.80;99.90;;;;;;5042159;28;20083;-69
2022/07/27 02:09:52;;;;;;;9.02;0.80;;;12.80;99.90;;;;;;5041802;28;20068;-70
2022/07/27 02:12:36;;;;;;;5.20;0.50;;;12.90;99.90;;;;;;5054454;28;20048;-69
2022/07/27 02:15:05;;;;;;;3.95;0.47;;;12.90;99.90;;;;;;5040115;28;20040;-70
2022/07/27 02:17:30;;;;;;;9.40;0.60;;;12.90;99.90;;;;;;5058579;28;20040;-69
2022/07/27 02:19:56;;;;;;;6.07;0.47;;;13.00;99.90;;;;;;5046558;28;20051;-70
2022/07/27 02:22:22;;;;;;;4.70;0.45;;;13.00;99.90;;;;;;5039914;28;20040;-68
2022/07/27 02:24:47;;;;;;;6.53;0.50;;;13.00;99.90;;;;;;5040051;28;21077;-70
2022/07/27 02:27:13;;;;;;;6.10;0.40;;;13.00;99.90;;;;;;5060672;28;20604;-72
2022/07/27 02:29:39;;;;;;;5.00;0.60;;;13.00;99.90;;;;;;5039887;28;20083;-70
2022/07/27 02:32:05;;;;;;;7.25;0.73;;;13.00;99.90;;;;;;5057811;28;20063;-68
2022/07/27 02:34:31;;;;;;;5.22;0.45;;;13.00;99.90;;;;;;5055911;28;20037;-69
2022/07/27 02:36:56;;;;;;;6.45;0.55;;;13.00;99.90;;;;;;5058512;28;20045;-69
2022/07/27 02:39:22;;;;;;;8.35;0.43;;;12.90;99.90;;;;;;5040863;28;20123;-70
2022/07/27 02:41:48;;;;;;;8.13;0.60;;;12.90;99.90;;;;;;5057672;28;20795;-69
2022/07/27 02:44:14;;;;;;;7.35;0.70;;;12.80;99.90;;;;;;5056114;28;20123;-69
2022/07/27 02:46:40;;;;;;;3.90;0.40;;;12.80;99.90;;;;;;5058717;28;20056;-69
2022/07/27 02:49:06;;;;;;;11.55;0.75;;;12.70;99.90;;;;;;5021082;28;20043;-68
2022/07/27 02:51:32;;;;;;;6.53;0.60;;;12.60;99.90;;;;;;5039008;28;20044;-68
2022/07/27 02:53:58;;;;;;;10.70;0.70;;;12.50;99.90;;;;;;5034998;28;20055;-68
2022/07/27 02:56:24;;;;;;;9.70;1.02;;;12.40;99.90;;;;;;5050858;28;20209;-68
2022/07/27 02:58:50;;;;;;;8.75;0.80;;;12.30;99.90;;;;;;5058910;28;20040;-69
2022/07/27 03:01:16;;;;;;;6.93;0.88;;;12.20;99.90;;;;;;5030954;28;20040;-70
2022/07/27 03:03:41;;;;;;;7.43;0.52;;;12.10;99.90;;;;;;5035578;28;20052;-70
2022/07/27 03:06:08;;;;;;;6.53;0.90;;;12.00;99.90;;;;;;5050910;28;20423;-68
2022/07/27 03:08:37;;;;;;;7.20;0.80;;;11.90;99.90;;;;;;5024523;28;20541;-68
2022/07/27 03:11:03;;;;;;;10.45;0.73;;;11.90;99.90;;;;;;5049363;28;20044;-69
2022/07/27 03:13:28;;;;;;;8.35;0.90;;;11.80;99.90;;;;;;5058215;28;20039;-71
2022/07/27 03:15:54;;;;;;;6.43;0.73;;;11.70;99.90;;;;;;5051756;28;20462;-70
2022/07/27 03:18:20;;;;;;;8.88;0.73;;;11.70;99.90;;;;;;5035120;28;20958;-69
2022/07/27 03:20:46;;;;;;;7.82;0.60;;;11.60;99.90;;;;;;5035333;28;20091;-68
2022/07/27 03:23:12;;;;;;;8.05;0.80;;;11.70;99.90;;;;;;5054550;28;20078;-69
2022/07/27 03:25:38;;;;;;;4.18;0.60;;;11.60;99.90;;;;;;5036209;28;20040;-68
2022/07/27 03:28:04;;;;;;;6.75;0.80;;;11.60;99.90;;;;;;5037366;28;20051;-69
2022/07/27 03:30:30;;;;;;;8.45;1.00;;;11.50;99.90;;;;;;5056849;28;20638;-70
2022/07/27 03:32:56;;;;;;;7.22;0.85;;;11.50;99.90;;;;;;5034970;28;20063;-70
2022/07/27 03:35:22;;;;;;;6.38;0.60;;;11.50;99.90;;;;;;5035556;28;20543;-69
2022/07/27 03:37:47;;;;;;;8.55;0.90;;;11.40;99.90;;;;;;5018887;28;20136;-71
2022/07/27 03:40:13;;;;;;;7.22;0.90;;;11.40;99.90;;;;;;5053574;28;20096;-70
2022/07/27 03:42:39;;;;;;;7.70;0.90;;;11.30;99.90;;;;;;5053402;28;20040;-70
2022/07/27 03:45:05;;;;;;;7.57;0.73;;;11.30;99.90;;;;;;5054474;28;20044;-70
2022/07/27 03:47:31;;;;;;;8.30;0.95;;;11.30;99.90;;;;;;5054622;28;20024;-71
2022/07/27 03:49:57;;;;;;;8.98;1.17;;;11.20;99.90;;;;;;5055360;28;20145;-69
2022/07/27 03:52:22;;;;;;;9.43;0.90;;;11.10;99.90;;;;;;5053968;28;20051;-71
2022/07/27 03:54:48;;;;;;;9.98;1.40;;;11.20;99.90;;;;;;5009981;28;20052;-69
2022/07/27 03:57:14;;;;;;;5.25;0.75;;;11.10;99.90;;;;;;5055493;28;20488;-71
2022/07/27 03:59:39;;;;;;;6.57;0.73;;;11.10;99.90;;;;;;5050159;28;20043;-70
2022/07/27 04:02:05;;;;;;;9.35;0.70;;;11.00;99.90;;;;;;5054802;28;20055;-72
2022/07/27 04:04:31;;;;;;;9.40;0.90;;;11.00;99.90;;;;;;5032893;28;20048;-69
2022/07/27 04:06:57;;;;;;;6.57;0.70;;;11.00;99.90;;;;;;5052615;28;20166;-70
2022/07/27 04:09:23;;;;;;;8.63;0.93;;;11.00;99.90;;;;;;5054858;28;20056;-68
2022/07/27 04:11:49;;;;;;;7.20;0.90;;;11.00;99.90;;;;;;5054910;28;20086;-69
2022/07/27 04:14:16;;;;;;;8.77;1.10;;;10.90;99.90;;;;;;5037077;28;20068;-70
2022/07/27 04:16:42;;;;;;;4.88;0.70;;;10.90;99.90;;;;;;5056315;28;20404;-71
2022/07/27 04:19:08;;;;;;;7.43;0.82;;;10.80;99.90;;;;;;5050736;28;20044;-70
2022/07/27 04:21:34;;;;;;;7.88;0.70;;;10.90;99.90;;;;;;5034208;28;20106;-71
2022/07/27 04:24:00;;;;;;;8.23;0.90;;;10.90;99.90;;;;;;5055824;28;20106;-70
2022/07/27 04:26:27;;;;;;;5.75;0.70;;;10.90;99.90;;;;;;5052995;28;20047;-69
2022/07/27 04:28:53;;;;;;;7.00;1.35;;;10.90;99.90;;;;;;5049256;28;20044;-68
2022/07/27 04:31:20;;;;;;;6.45;0.93;;;11.00;99.90;;;;;;5037550;28;20150;-70
2022/07/27 04:33:46;;;;;;;8.68;1.20;;;11.10;99.90;;;;;;5005619;28;20726;-69
2022/07/27 04:36:17;;;;;;;5.70;0.77;;;11.20;99.90;;;;;;5058824;28;20113;-68
2022/07/27 04:38:43;;;;;;;6.63;0.60;;;11.30;99.90;;;;;;5060584;28;20028;-69
2022/07/27 04:41:08;;;;;;;5.47;0.95;;;11.50;99.90;;;;;;5059657;28;20039;-69
2022/07/27 04:43:34;;;;;;;8.45;0.80;;;11.60;99.90;;;;;;5042231;28;20931;-72
2022/07/27 04:46:03;;;;;;;6.85;1.08;;;11.90;99.90;;;;;;5040003;28;20037;-68
2022/07/27 04:48:30;;;;;;;6.72;0.82;;;12.00;99.90;;;;;;5022761;28;20476;-69
2022/07/27 04:50:56;;;;;;;4.82;0.70;;;12.10;99.90;;;;;;5058260;28;20938;-69
2022/07/27 04:53:22;;;;;;;7.65;1.00;;;12.20;99.90;;;;;;5058775;28;20046;-70
2022/07/27 04:55:47;;;;;;;9.10;0.98;;;12.30;99.90;;;;;;5041624;28;20148;-70
2022/07/27 04:58:14;;;;;;;9.07;0.70;;;12.40;99.90;;;;;;5052856;28;20098;-69
2022/07/27 05:00:40;;;;;;;6.72;0.90;;;12.40;99.90;;;;;;5058906;28;20721;-73
2022/07/27 05:03:06;;;;;;;10.55;0.93;;;12.50;99.90;;;;;;5040958;28;20127;-68
2022/07/27 05:05:31;;;;;;;7.32;0.70;;;12.50;99.90;;;;;;5024388;28;20646;-69
2022/07/27 05:07:57;;;;;;;7.10;0.93;;;12.60;99.90;;;;;;5062007;28;20119;-73
2022/07/27 05:10:24;;;;;;;8.38;0.82;;;12.60;99.90;;;;;;5038555;28;20056;-71
2022/07/27 05:12:50;;;;;;;7.25;0.70;;;12.70;99.90;;;;;;5054955;28;20055;-68
2022/07/27 05:15:16;;;;;;;9.63;0.80;;;12.90;99.90;;;;;;5057401;28;20568;-70
2022/07/27 05:17:42;;;;;;;8.05;1.02;;;13.00;99.90;;;;;;5059073;28;20032;-70
2022/07/27 05:20:08;;;;;;;5.05;0.77;;;13.10;99.90;;;;;;5059364;28;20044;-70
2022/07/27 05:22:34;;;;;;;8.85;0.90;;;13.10;99.90;;;;;;5034698;28;20105;-71
2022/07/27 05:25:00;;;;;;;7.10;0.80;;;13.30;99.90;;;;;;5022406;28;20032;-68
2022/07/27 05:27:26;;;;;;;3.60;0.55;;;13.40;99.90;;;;;;5057025;28;20147;-69
2022/07/27 05:29:52;;;;;;;8.93;1.38;;;13.50;99.90;;;;;;5058227;28;20036;-70
2022/07/27 05:32:17;;;;;;;7.63;0.80;;;13.60;99.90;;;;;;5056982;28;20442;-67
2022/07/27 05:34:44;;;;;;;6.32;0.70;;;13.60;99.90;;;;;;5042108;28;20440;-68
2022/07/27 05:37:11;;;;;;;8.20;0.82;;;13.70;99.90;;;;;;5034516;28;20400;-70
2022/07/27 05:39:37;;;;;;;7.05;0.93;;;13.90;99.90;;;;;;5042738;28;20036;-69
2022/07/27 05:42:04;;;;;;;6.60;0.77;;;14.10;99.90;;;;;;5056948;28;20048;-70
2022/07/27 05:44:30;;;;;;;9.55;0.70;;;14.30;99.90;;;;;;5055341;28;20131;-69
2022/07/27 05:46:55;;;;;;;6.00;0.50;;;14.60;99.90;;;;;;5058101;28;20044;-69
2022/07/27 05:49:22;;;;;;;6.82;0.50;;;14.70;99.90;;;;;;5059434;28;20043;-69
2022/07/27 05:51:47;;;;;;;4.80;0.47;;;14.70;99.90;;;;;;5060544;28;20068;-71
2022/07/27 05:54:13;;;;;;;6.13;0.75;;;14.60;99.90;;;;;;5052818;28;20041;-70
2022/07/27 05:56:40;;;;;;;3.72;0.30;;;14.70;99.90;;;;;;5057019;28;20096;-69
2022/07/27 05:59:06;;;;;;;8.00;0.60;;;14.80;99.90;;;;;;5052839;28;20051;-68
2022/07/27 06:01:32;;;;;;;6.13;0.40;;;14.70;99.90;;;;;;5055531;28;20036;-68
2022/07/27 06:03:57;;;;;;;4.68;0.40;;;14.70;99.90;;;;;;5055394;28;20041;-68
2022/07/27 06:09:07;;;;;;;5.60;0.50;;;15.50;99.90;;;;;;5054043;28;20040;-70
2022/07/27 06:11:33;;;;;;;6.80;0.80;;;15.90;99.90;;;;;;5061162;28;20598;-69
2022/07/27 06:13:59;;;;;;;4.55;0.40;;;16.20;99.90;;;;;;5056994;28;20087;-69
2022/07/27 06:16:25;;;;;;;7.57;0.50;;;16.50;99.90;;;;;;5052661;28;20090;-70
2022/07/27 06:18:50;;;;;;;6.70;0.47;;;16.70;99.90;;;;;;5018164;28;20048;-68
2022/07/27 06:21:16;;;;;;;4.75;0.45;;;17.00;99.90;;;;;;5037507;28;20125;-71
2022/07/27 06:23:42;;;;;;;4.13;0.40;;;17.20;99.90;;;;;;5055101;28;20040;-69
2022/07/27 06:26:08;;;;;;;6.70;0.40;;;17.40;99.90;;;;;;5050770;28;20629;-70
2022/07/27 06:28:34;;;;;;;4.72;0.45;;;17.40;99.90;;;;;;5050555;28;20188;-71
2022/07/27 06:30:59;;;;;;;8.15;0.95;;;17.50;99.90;;;;;;5054017;28;20032;-69
2022/07/27 06:33:28;;;;;;;5.88;0.40;;;17.60;99.90;;;;;;5057479;28;20648;-69
2022/07/27 06:35:55;;;;;;;5.68;0.60;;;17.70;99.90;;;;;;5058498;28;20036;-68
2022/07/27 06:38:21;;;;;;;7.93;0.40;;;17.80;99.90;;;;;;5052997;28;20522;-69
2022/07/27 06:40:51;;;;;;;5.68;0.50;;;18.00;99.90;;;;;;5033446;28;20729;-72
2022/07/27 06:43:22;;;;;;;4.80;0.50;;;18.10;99.90;;;;;;5051882;28;20047;-70
2022/07/27 06:45:48;;;;;;;4.15;0.45;;;18.00;99.90;;;;;;5054962;28;20052;-69
2022/07/27 06:48:14;;;;;;;3.92;0.45;;;17.80;99.90;;;;;;5053196;28;20028;-68
2022/07/27 06:50:40;;;;;;;3.00;0.47;;;17.40;99.90;;;;;;5053233;28;20067;-70
2022/07/27 06:53:06;;;;;;;6.20;0.55;;;17.20;99.90;;;;;;5053876;28;20040;-72
2022/07/27 06:55:32;;;;;;;5.97;0.63;;;17.10;99.90;;;;;;5056012;28;20151;-68
2022/07/27 06:57:57;;;;;;;5.45;0.50;;;17.20;99.90;;;;;;5059608;28;20070;-69
2022/07/27 07:00:23;;;;;;;5.13;0.43;;;17.60;99.90;;;;;;5054750;28;20051;-70
2022/07/27 07:03:01;;;;;;;7.43;0.40;;;17.80;99.90;;;;;;5053785;28;20087;-69
2022/07/27 07:05:28;;;;;;;4.90;0.40;;;18.00;99.90;;;;;;5058595;28;20043;-71
2022/07/27 07:07:54;;;;;;;4.70;0.40;;;18.40;99.90;;;;;;5059979;28;20040;-69
2022/07/27 07:10:21;;;;;;;6.30;0.43;;;18.70;99.90;;;;;;5054386;28;20091;-72
2022/07/27 07:12:47;;;;;;;5.90;0.50;;;19.20;99.90;;;;;;5050077;28;20062;-71
2022/07/27 07:15:12;;;;;;;5.53;0.45;;;19.60;99.90;;;;;;5019054;28;20040;-70
2022/07/27 07:17:39;;;;;;;5.75;0.40;;;19.80;99.90;;;;;;5049646;28;20459;-70
2022/07/27 07:20:06;;;;;;;6.68;0.50;;;19.40;99.90;;;;;;5036487;28;20133;-72
2022/07/27 07:22:35;;;;;;;9.02;0.43;;;19.70;99.90;;;;;;5051828;28;20131;-71
2022/07/27 07:25:01;;;;;;;5.07;0.50;;;20.00;99.90;;;;;;5050435;28;20044;-69
2022/07/27 07:27:27;;;;;;;6.82;0.45;;;20.40;99.90;;;;;;5052695;28;20241;-69
2022/07/27 07:29:54;;;;;;;6.60;0.45;;;20.10;99.90;;;;;;5039236;28;20051;-70
2022/07/27 07:32:23;;;;;;;3.67;0.30;;;20.60;99.90;;;;;;5056731;28;20067;-71
2022/07/27 07:34:50;;;;;;;4.55;0.40;;;20.10;99.90;;;;;;5056997;28;20052;-69
2022/07/27 07:37:17;;;;;;;4.45;0.30;;;19.80;99.90;;;;;;5051653;28;20051;-71
2022/07/27 07:39:43;;;;;;;5.82;0.30;;;19.60;99.90;;;;;;5051584;28;20579;-71
2022/07/27 07:42:09;;;;;;;6.57;0.47;;;19.40;99.90;;;;;;5051472;28;20051;-69
2022/07/27 07:44:34;;;;;;;6.60;0.40;;;19.70;99.90;;;;;;5052693;28;20068;-69
2022/07/27 07:47:00;;;;;;;5.20;0.40;;;19.60;99.90;;;;;;5059718;28;20048;-67
2022/07/27 07:49:26;;;;;;;3.58;0.40;;;19.30;99.90;;;;;;5052155;28;20438;-70
2022/07/27 07:51:52;;;;;;;6.03;0.50;;;19.40;99.90;;;;;;5043181;28;20051;-69
2022/07/27 07:54:18;;;;;;;5.78;0.40;;;19.20;99.90;;;;;;5029680;28;20040;-73
2022/07/27 07:56:44;;;;;;;6.57;0.50;;;18.80;99.90;;;;;;5043529;28;20052;-69
2022/07/27 07:59:09;;;;;;;5.35;0.50;;;18.80;99.90;;;;;;5066339;28;20044;-70
2022/07/27 08:01:35;;;;;;;6.38;0.60;;;19.00;99.90;;;;;;5058539;28;20537;-69
2022/07/27 08:04:01;;;;;;;4.03;0.40;;;19.00;99.90;;;;;;5054606;28;20044;-69
2022/07/27 08:06:27;;;;;;;4.10;0.40;;;19.00;99.90;;;;;;5052848;28;20143;-70
2022/07/27 08:08:52;;;;;;;6.93;0.40;;;18.40;99.90;;;;;;5044987;28;20097;-71
2022/07/27 08:11:18;;;;;;;4.57;0.32;;;18.20;99.90;;;;;;5048396;28;20190;-72
2022/07/27 08:13:44;;;;;;;5.18;0.40;;;18.00;99.90;;;;;;5060422;28;20040;-69
2022/07/27 08:16:10;;;;;;;5.47;0.40;;;17.50;99.90;;;;;;5051251;28;20049;-70
2022/07/27 08:18:36;;;;;;;4.80;0.43;;;17.40;99.90;;;;;;5059742;28;20047;-69
2022/07/27 08:21:01;;;;;;;6.20;0.47;;;17.50;99.90;;;;;;5011928;28;20040;-73
2022/07/27 08:23:27;;;;;;;4.22;0.30;;;17.40;99.90;;;;;;5048996;28;20124;-69
2022/07/27 08:25:53;;;;;;;3.15;0.30;;;17.50;99.90;;;;;;5039427;28;20105;-69
2022/07/27 08:28:19;;;;;;;4.20;0.35;;;17.80;99.90;;;;;;5055243;28;20089;-69
2022/07/27 08:30:45;;;;;;;3.17;0.30;;;17.90;99.90;;;;;;5032025;28;20076;-68
2022/07/27 08:33:11;;;;;;;4.03;0.38;;;18.30;99.90;;;;;;5052048;28;20097;-70
2022/07/27 08:35:37;;;;;;;3.65;0.40;;;19.10;99.90;;;;;;5056034;28;20035;-68
2022/07/27 08:38:05;;;;;;;2.38;0.30;;;18.90;99.90;;;;;;5051301;28;20825;-69
2022/07/27 08:40:32;;;;;;;4.40;0.25;;;18.90;99.90;;;;;;5037307;28;20571;-69
2022/07/27 08:43:00;;;;;;;3.63;0.30;;;18.60;99.90;;;;;;5052185;28;20041;-69
2022/07/27 08:45:25;;;;;;;2.10;0.25;;;18.50;99.90;;;;;;5049529;28;20037;-69
2022/07/27 08:47:52;;;;;;;3.03;0.30;;;18.30;99.90;;;;;;5058528;28;20055;-70
2022/07/27 08:50:22;;;;;;;5.13;0.40;;;18.50;99.90;;;;;;5041421;28;20052;-70
2022/07/27 08:52:55;;;;;;;3.03;0.30;;;19.40;99.90;;;;;;5040735;28;20045;-71
2022/07/27 08:55:22;;;;;;;4.70;0.45;;;20.30;99.90;;;;;;5059006;28;20671;-71
2022/07/27 08:57:49;;;;;;;4.10;0.20;;;20.60;99.90;;;;;;5037076;28;20540;-71
2022/07/27 09:00:16;;;;;;;3.58;0.32;;;20.80;99.90;;;;;;5053598;28;20044;-69
2022/07/27 09:02:44;;;;;;;4.80;0.20;;;21.50;97.80;;;;;;5047930;28;20036;-69
2022/07/27 09:05:09;;;;;;;3.65;0.32;;;21.60;95.90;;;;;;5054031;28;20049;-70
2022/07/27 09:07:35;;;;;;;4.20;0.30;;;21.40;96.60;;;;;;5030189;28;20753;-70
2022/07/27 09:10:02;;;;;;;3.22;0.20;;;21.50;96.30;;;;;;5048875;28;20763;-70
2022/07/27 09:12:30;;;;;;;5.18;0.20;;;21.50;94.70;;;;;;5062885;28;20874;-69
2022/07/27 09:15:03;;;;;;;4.70;0.20;;;21.50;94.00;;;;;;5035972;28;20139;-71
2022/07/27 09:17:29;;;;;;;3.00;0.30;;;21.00;94.70;;;;;;5050040;28;20036;-69
2022/07/27 09:20:01;;;;;;;2.88;0.30;;;21.50;96.20;;;;;;5065199;28;20036;-70
2022/07/27 09:22:52;;;;;;;2.33;0.20;;;22.00;94.50;;;;;;5067292;28;20173;-69
2022/07/27 09:25:22;;;;;;;2.22;0.20;;;21.40;91.30;;;;;;5051665;28;20059;-70
2022/07/27 09:27:52;;;;;;;2.90;0.22;;;21.40;90.60;;;;;;5051134;28;20052;-69
2022/07/27 09:30:20;;;;;;;6.78;0.40;;;21.40;91.90;;;;;;5056078;28;20068;-71
2022/07/27 09:32:58;;;;;;;4.47;0.20;;;21.40;93.70;;;;;;5067330;28;20048;-70
2022/07/27 09:35:28;;;;;;;2.88;0.25;;;20.80;88.60;;;;;;5061288;28;20098;-70
2022/07/27 09:37:56;;;;;;;5.40;0.40;;;20.80;91.80;;;;;;5041042;28;20044;-71
2022/07/27 09:40:23;;;;;;;2.78;0.20;;;20.30;90.00;;;;;;5054680;28;20070;-69
2022/07/27 09:43:08;;;;;;;2.45;0.20;;;20.40;91.20;;;;;;5067080;28;20047;-72
2022/07/27 09:45:35;;;;;;;2.17;0.30;;;20.40;90.60;;;;;;5061649;28;20072;-71
2022/07/27 09:48:14;;;;;;;2.88;0.20;;;20.90;90.90;;;;;;5032518;28;20041;-70
2022/07/27 09:50:46;;;;;;;3.60;0.20;;;20.90;92.90;;;;;;5054752;28;20097;-69
2022/07/27 09:53:12;;;;;;;2.88;0.20;;;20.80;90.80;;;;;;5031561;28;20436;-70
2022/07/27 09:55:38;;;;;;;4.65;0.30;;;21.00;92.50;;;;;;5057832;28;20432;-70
2022/07/27 09:58:03;;;;;;;3.13;0.20;;;20.90;92.70;;;;;;5060372;28;20051;-71
2022/07/27 10:00:29;;;;;;;2.38;0.20;;;21.10;92.40;;;;;;5058625;28;20037;-69
2022/07/27 10:02:55;;;;;;;2.22;0.10;;;21.10;91.50;;;;;;5049045;28;20044;-69
2022/07/27 10:05:22;;;;;;;2.63;0.20;;;21.70;91.80;;;;;;5052880;28;20025;-69
2022/07/27 10:07:48;;;;;;;3.45;0.30;;;21.80;91.40;;;;;;5068628;28;20125;-71
2022/07/27 10:10:14;;;;;;;4.97;0.30;;;21.50;93.80;;;;;;5065867;28;20179;-69
2022/07/27 10:12:43;;;;;;;2.92;0.20;;;22.40;90.20;;;;;;5049449;28;20044;-70
2022/07/27 10:15:12;;;;;;;3.30;0.25;;;21.20;87.90;;;;;;5056023;28;20056;-69
2022/07/27 10:17:42;;;;;;;5.05;0.30;;;20.90;90.80;;;;;;5059637;28;20080;-71
2022/07/27 10:20:10;;;;;;;1.92;0.28;;;20.60;91.90;;;;;;5043098;28;20045;-71
2022/07/27 10:22:49;;;;;;;2.53;0.20;;;20.40;92.10;;;;;;5042082;28;20044;-69
2022/07/27 10:25:14;;;;;;;2.25;0.28;;;20.50;91.90;;;;;;5054727;28;20159;-72
2022/07/27 10:27:40;;;;;;;1.60;0.30;;;20.80;92.70;;;;;;5057505;28;20059;-70
2022/07/27 10:30:06;;;;;;;2.83;0.22;;;21.00;91.60;;;;;;5055826;28;20044;-69
2022/07/27 10:32:33;;;;;;;3.83;0.30;;;20.30;91.30;;;;;;5067146;28;20048;-69
2022/07/27 10:35:00;;;;;;;2.25;0.20;;;20.40;90.70;;;;;;5034214;28;20044;-71
2022/07/27 10:37:33;;;;;;;3.20;0.30;;;20.60;92.30;;;;;;5064514;28;20040;-70
2022/07/27 10:43:04;;;;;;;1.10;0.10;;;21.50;87.10;;;;;;5058811;28;20052;-69
2022/07/27 10:45:43;;;;;;;2.35;0.20;;;21.30;86.00;;;;;;5054907;28;20053;-70
2022/07/27 10:48:39;;;;;;;2.15;0.20;;;20.30;90.10;;;;;;5041943;28;20110;-69
2022/07/27 10:51:09;;;;;;;2.13;0.20;;;20.30;92.50;;;;;;5047849;28;20710;-71
2022/07/27 10:53:39;;;;;;;3.25;0.20;;;20.50;93.20;;;;;;5062243;28;20052;-69
2022/07/27 10:56:07;;;;;;;2.20;0.20;;;20.50;95.70;;;;;;5034756;28;20052;-72
2022/07/27 10:58:32;;;;;;;4.50;0.30;;;20.50;93.80;;;;;;5069075;28;20702;-70
2022/07/27 11:01:00;;;;;;;4.45;0.30;;;20.50;95.70;;;;;;5059481;28;20053;-70
2022/07/27 11:03:34;;;;;;;2.97;0.20;;;20.60;96.70;;;;;;5062366;28;20058;-71
2022/07/27 11:06:11;;;;;;;3.30;0.30;;;20.70;94.80;;;;;;5052682;28;20064;-70
2022/07/27 11:08:42;;;;;;;4.43;0.20;;;20.70;92.80;;;;;;5060106;28;20066;-70
2022/07/27 11:11:13;;;;;;;2.65;0.20;;;20.70;95.90;;;;;;5065201;28;20561;-70
2022/07/27 11:13:39;;;;;;;4.10;0.20;;;20.30;95.20;;;;;;5051286;28;20046;-73
2022/07/27 11:16:08;;;;;;;4.90;0.20;;;20.20;96.80;;;;;;5049563;28;20044;-70
2022/07/27 11:18:39;;;;;;;6.95;0.68;;;20.10;97.50;;;;;;5032587;28;20053;-69
2022/07/27 11:21:28;;;;;;;3.55;0.20;;;19.90;99.90;;;;;;5059406;28;20135;-70
2022/07/27 11:23:55;;;;;;;4.10;0.30;;;19.60;98.10;;;;;;5049782;28;20072;-69
2022/07/27 11:26:23;;;;;;;5.10;0.30;;;19.60;99.50;;;;;;5054895;28;20333;-70
2022/07/27 11:28:50;;;;;;;4.32;0.20;;;19.80;98.60;;;;;;5055116;28;20075;-70
2022/07/27 11:31:16;;;;;;;4.75;0.38;;;20.00;99.70;;;;;;5034987;28;20156;-69
2022/07/27 11:33:50;;;;;;;6.07;0.50;;;20.40;99.90;;;;;;5055813;28;20521;-71
2022/07/27 11:36:16;;;;;;;5.78;0.60;;;20.20;99.90;;;;;;5055098;28;20160;-69
2022/07/27 11:38:54;;;;;;;3.53;0.40;;;20.10;99.90;;;;;;5039328;28;20040;-71
2022/07/27 11:41:31;;;;;;;5.47;0.55;;;19.90;99.90;;;;;;5055837;28;20608;-69
2022/07/27 11:44:05;;;;;;;6.47;0.63;;;19.60;99.90;;;;;;5054978;28;20041;-70
2022/07/27 11:46:33;;;;;;;6.70;0.50;;;19.70;99.90;;;;;;5064673;28;20066;-69
2022/07/27 11:49:03;;;;;;;5.20;0.40;;;20.00;99.90;;;;;;5051853;28;20083;-69
2022/07/27 11:51:29;;;;;;;3.60;0.30;;;20.90;99.90;;;;;;5041900;28;20097;-71
2022/07/27 11:54:03;;;;;;;5.03;0.22;;;21.30;98.10;;;;;;5053148;28;20751;-69
2022/07/27 11:56:31;;;;;;;3.65;0.32;;;20.90;96.40;;;;;;5061947;28;20058;-70
2022/07/27 11:59:20;;;;;;;2.65;0.30;;;21.30;96.20;;;;;;5023096;28;20109;-70
2022/07/27 12:01:59;;;;;;;3.25;0.30;;;20.80;89.90;;;;;;5055611;28;20045;-70
2022/07/27 12:04:39;;;;;;;3.05;0.30;;;20.90;93.20;;;;;;5058107;28;20626;-70
2022/07/27 12:07:28;;;;;;;6.30;0.85;;;20.80;97.50;;;;;;5058859;28;20036;-71
2022/07/27 12:09:58;;;;;;;4.85;0.50;;;20.90;98.60;;;;;;5050191;28;20048;-70
2022/07/27 12:12:29;;;;;;;6.80;0.45;;;21.10;97.90;;;;;;5049629;28;20585;-69
2022/07/27 12:15:14;;;;;;;4.45;0.60;;;21.30;96.70;;;;;;5046497;28;20359;-69
2022/07/27 12:17:40;;;;;;;2.90;0.40;;;21.80;94.40;;;;;;5052971;28;20396;-68
2022/07/27 12:20:17;;;;;;;4.45;0.40;;;21.70;95.40;;;;;;5060781;28;20185;-70
2022/07/27 12:22:44;;;;;;;4.28;0.40;;;22.00;94.30;;;;;;5049297;28;20494;-71
2022/07/27 12:25:15;;;;;;;6.57;0.40;;;22.60;94.20;;;;;;5048629;28;20040;-69
2022/07/27 12:27:56;;;;;;;3.40;0.40;;;22.30;94.20;;;;;;5054002;28;20103;-70
2022/07/27 12:30:43;;;;;;;5.68;0.52;;;21.40;94.50;;;;;;5031748;28;20377;-73
2022/07/27 12:33:27;;;;;;;5.05;0.30;;;22.00;95.30;;;;;;5052922;28;20449;-70
2022/07/27 12:35:53;;;;;;;5.72;0.30;;;22.10;92.50;;;;;;5052344;28;20097;-73
2022/07/27 12:38:19;;;;;;;4.65;0.45;;;22.20;92.80;;;;;;5056803;28;20543;-71
2022/07/27 12:40:47;;;;;;;4.28;0.40;;;22.10;93.10;;;;;;5044380;28;20065;-69
2022/07/27 12:43:18;;;;;;;3.25;0.30;;;21.70;92.10;;;;;;5051446;28;20044;-70
2022/07/27 12:45:46;;;;;;;5.38;0.40;;;21.60;95.10;;;;;;5037383;28;20072;-70
2022/07/27 12:48:16;;;;;;;6.00;0.38;;;22.10;95.00;;;;;;5053199;28;20078;-69
2022/07/27 12:50:44;;;;;;;2.35;0.30;;;22.30;90.30;;;;;;5061048;28;20067;-71
2022/07/27 12:53:12;;;;;;;2.25;0.20;;;23.00;91.20;;;;;;5060736;28;20036;-70